createdAt,value
2019-04-26T00:02:05.813Z,36.20
2019-04-26T00:04:37.421Z,36.29
2019-04-26T00:07:09.673Z,36.52
2019-04-26T00:09:42.009Z,36.57
2019-04-26T00:12:23.757Z,36.54
2019-04-26T00:15:13.096Z,36.59
2019-04-26T00:17:49.846Z,36.89
2019-04-26T00:20:21.951Z,36.93
2019-04-26T00:22:53.565Z,36.96
2019-04-26T00:25:24.908Z,37.07
2019-04-26T00:27:56.462Z,37.23
2019-04-26T00:30:27.948Z,37.00
2019-04-26T00:32:59.383Z,37.08
2019-04-26T00:35:30.913Z,37.16
2019-04-26T00:38:02.158Z,37.10
2019-04-26T00:40:33.404Z,37.10
2019-04-26T00:43:04.647Z,37.52
2019-04-26T00:45:36.075Z,37.53
2019-04-26T00:48:07.757Z,37.74
2019-04-26T00:50:39.304Z,37.65
2019-04-26T00:53:10.695Z,37.60
2019-04-26T00:55:41.746Z,37.64
2019-04-26T00:58:13.698Z,37.68
2019-04-26T01:00:46.027Z,37.73
2019-04-26T01:03:17.156Z,37.56
2019-04-26T01:05:59.596Z,37.56
2019-04-26T01:08:21.916Z,38.02
2019-04-26T01:10:53.362Z,38.22
2019-04-26T01:13:26.114Z,38.22
2019-04-26T01:15:57.599Z,38.35
2019-04-26T01:18:28.841Z,38.43
2019-04-26T01:21:00.598Z,38.53
2019-04-26T01:23:33.380Z,38.66
2019-04-26T01:26:25.192Z,38.86
2019-04-26T01:29:09.148Z,39.11
2019-04-26T01:32:01.901Z,39.38
2019-04-26T01:34:33.450Z,39.49
2019-04-26T01:37:05.208Z,39.88
2019-04-26T01:39:38.568Z,40.36
2019-04-26T01:42:17.835Z,40.28
2019-04-26T01:44:58.403Z,40.28
2019-04-26T01:47:29.941Z,40.66
2019-04-26T01:50:01.488Z,40.70
2019-04-26T01:52:33.162Z,41.08
2019-04-26T01:55:07.104Z,41.54
2019-04-26T01:57:38.311Z,41.54
2019-04-26T02:00:11.438Z,41.56
2019-04-26T02:02:44.797Z,41.74
2019-04-26T02:05:22.395Z,41.97
2019-04-26T02:07:53.738Z,42.32
2019-04-26T02:10:26.568Z,42.42
2019-04-26T02:12:57.865Z,42.48
2019-04-26T02:15:31.290Z,42.47
2019-04-26T02:18:02.918Z,42.46
2019-04-26T02:20:54.518Z,42.62
2019-04-26T02:23:27.965Z,42.81
2019-04-26T02:26:00.988Z,42.82
2019-04-26T02:28:32.882Z,42.83
2019-04-26T02:31:04.342Z,42.89
2019-04-26T02:33:36.791Z,42.78
2019-04-26T02:36:07.895Z,42.98
2019-04-26T02:38:39.405Z,43.08
2019-04-26T02:41:10.551Z,43.29
2019-04-26T02:43:42.585Z,42.99
2019-04-26T02:46:16.718Z,42.99
2019-04-26T02:48:53.210Z,43.12
2019-04-26T02:51:29.147Z,43.12
2019-04-26T02:54:04.893Z,43.11
2019-04-26T02:56:41.810Z,43.02
2019-04-26T02:59:31.729Z,42.90
2019-04-26T03:02:04.915Z,42.90
2019-04-26T03:04:38.021Z,42.97
2019-04-26T03:07:12.874Z,43.08
2019-04-26T03:09:45.236Z,42.93
2019-04-26T03:12:16.328Z,42.93
2019-04-26T03:15:12.695Z,42.81
2019-04-26T03:17:38.144Z,42.71
2019-04-26T03:20:16.542Z,42.50
2019-04-26T03:23:19.915Z,42.32
2019-04-26T03:26:18.415Z,42.46
2019-04-26T03:29:02.009Z,42.52
2019-04-26T03:31:54.310Z,42.83
2019-04-26T03:34:34.359Z,42.65
2019-04-26T03:37:40.541Z,42.68
2019-04-26T03:40:33.933Z,42.63
2019-04-26T03:43:35.026Z,42.63
2019-04-26T03:46:29.831Z,42.50
2019-04-26T03:49:36.185Z,42.50
2019-04-26T03:52:28.827Z,42.35
2019-04-26T03:55:24.865Z,41.96
2019-04-26T03:58:07.976Z,41.96
2019-04-26T04:00:57.598Z,41.87
2019-04-26T04:03:39.281Z,41.82
2019-04-26T04:06:10.808Z,41.72
2019-04-26T04:08:48.242Z,41.57
2019-04-26T04:11:22.573Z,41.64
2019-04-26T04:14:07.193Z,41.51
2019-04-26T04:16:47.353Z,41.39
2019-04-26T04:20:06.893Z,41.20
2019-04-26T04:22:47.858Z,41.20
2019-04-26T04:25:32.523Z,41.13
2019-04-26T04:28:06.948Z,41.00
2019-04-26T04:30:50.211Z,40.96
2019-04-26T04:33:29.021Z,40.91
2019-04-26T04:36:04.831Z,40.66
2019-04-26T04:38:49.692Z,40.65
2019-04-26T04:41:53.409Z,40.59
2019-04-26T04:44:33.198Z,40.67
2019-04-26T04:47:25.074Z,40.56
2019-04-26T04:50:10.418Z,40.54
2019-04-26T04:53:04.567Z,40.46
2019-04-26T04:55:50.136Z,40.55
2019-04-26T04:58:38.528Z,40.31
2019-04-26T05:01:20.011Z,40.14
2019-04-26T05:03:57.777Z,39.96
2019-04-26T05:06:54.507Z,39.53
2019-04-26T05:09:36.215Z,39.27
2019-04-26T05:12:20.857Z,39.04
2019-04-26T05:15:19.141Z,38.56
2019-04-26T05:18:17.651Z,38.65
2019-04-26T05:21:03.525Z,38.20
2019-04-26T05:23:55.168Z,37.69
2019-04-26T05:27:03.749Z,37.73
2019-04-26T05:29:58.149Z,36.88
2019-04-26T05:32:52.722Z,36.90
2019-04-26T05:35:57.341Z,37.26
2019-04-26T05:39:06.708Z,37.69
2019-04-26T05:41:57.849Z,37.92
2019-04-26T05:45:28.897Z,38.29
2019-04-26T05:48:43.917Z,37.59
2019-04-26T05:51:39.881Z,39.03
2019-04-26T05:54:22.716Z,39.36
2019-04-26T05:57:02.672Z,39.88
2019-04-26T06:00:01.324Z,38.20
2019-04-26T06:03:12.087Z,38.88
2019-04-26T06:06:23.294Z,39.11
2019-04-26T06:09:23.076Z,39.55
2019-04-26T06:12:12.383Z,39.81
2019-04-26T06:15:04.575Z,37.96
2019-04-26T06:18:04.795Z,38.20
2019-04-26T06:20:47.795Z,37.72
2019-04-26T06:23:41.387Z,36.86
2019-04-26T06:26:46.424Z,37.33
2019-04-26T06:29:27.307Z,36.82
2019-04-26T06:32:17.294Z,36.84
2019-04-26T06:35:08.594Z,36.28
2019-04-26T06:38:00.218Z,35.78
2019-04-26T06:41:08.746Z,35.10
2019-04-26T06:43:43.666Z,34.99
2019-04-26T06:46:47.574Z,35.12
2019-04-26T06:49:33.329Z,34.97
2019-04-26T06:52:15.572Z,35.77
2019-04-26T06:54:51.423Z,35.00
2019-04-26T06:58:02.879Z,34.87
2019-04-26T07:01:06.698Z,33.62
2019-04-26T07:04:08.530Z,34.58
2019-04-26T07:06:50.289Z,34.75
2019-04-26T07:09:31.852Z,33.83
2019-04-26T07:12:28.756Z,33.13
2019-04-26T07:15:29.747Z,33.13
2019-04-26T07:18:37.498Z,32.89
2019-04-26T07:21:20.167Z,32.05
2019-04-26T07:24:20.103Z,29.73
2019-04-26T07:27:26.210Z,29.31
2019-04-26T07:30:21.887Z,29.17
2019-04-26T07:33:01.464Z,28.42
2019-04-26T07:36:12.377Z,27.83
2019-04-26T07:39:19.411Z,28.50
2019-04-26T07:42:03.245Z,27.37
2019-04-26T07:44:51.337Z,27.67
2019-04-26T07:47:36.307Z,26.38
2019-04-26T07:50:54.004Z,26.77
2019-04-26T07:53:54.153Z,26.60
2019-04-26T07:56:48.904Z,26.40
2019-04-26T07:59:43.272Z,26.47
2019-04-26T08:02:25.926Z,25.75
2019-04-26T08:05:04.748Z,24.90
2019-04-26T08:07:43.548Z,25.16
2019-04-26T08:10:21.308Z,24.95
2019-04-26T08:13:15.892Z,24.88
2019-04-26T08:16:06.849Z,25.03
2019-04-26T08:19:02.599Z,24.69
2019-04-26T08:21:48.114Z,24.45
2019-04-26T08:24:22.424Z,24.67
2019-04-26T08:27:18.641Z,25.74
2019-04-26T08:29:50.198Z,25.89
2019-04-26T08:32:22.994Z,25.77
2019-04-26T08:34:58.242Z,25.47
2019-04-26T08:37:37.990Z,25.29
2019-04-26T08:40:28.075Z,25.12
2019-04-26T08:42:58.777Z,25.17
2019-04-26T08:46:01.679Z,24.43
2019-04-26T08:48:36.413Z,24.70
2019-04-26T08:51:15.369Z,24.47
2019-04-26T08:53:54.316Z,24.74
2019-04-26T08:56:38.234Z,24.48
2019-04-26T08:59:20.156Z,24.76
2019-04-26T09:02:31.129Z,24.72
2019-04-26T09:05:25.863Z,24.38
2019-04-26T09:08:00.179Z,24.00
2019-04-26T09:10:32.109Z,23.97
2019-04-26T09:13:24.316Z,23.89
2019-04-26T09:16:03.814Z,23.75
2019-04-26T09:18:48.469Z,23.53
2019-04-26T09:21:19.258Z,23.63
2019-04-26T09:23:55.189Z,23.75
2019-04-26T09:26:42.453Z,23.73
2019-04-26T09:29:30.531Z,23.81
2019-04-26T09:32:13.850Z,23.92
2019-04-26T09:34:48.618Z,23.26
2019-04-26T09:37:24.466Z,22.74
2019-04-26T09:40:10.536Z,22.67
2019-04-26T09:42:59.702Z,22.68
2019-04-26T09:45:38.035Z,22.38
2019-04-26T09:48:14.061Z,21.92
2019-04-26T09:50:47.871Z,22.05
2019-04-26T09:53:19.519Z,22.12
2019-04-26T09:56:00.910Z,22.13
2019-04-26T09:58:32.563Z,22.33
2019-04-26T10:01:06.217Z,22.30
2019-04-26T10:03:38.527Z,22.07
2019-04-26T10:06:11.823Z,22.11
2019-04-26T10:08:55.553Z,22.29
2019-04-26T10:11:43.599Z,21.83
2019-04-26T10:14:30.969Z,21.87
2019-04-26T10:17:17.523Z,21.66
2019-04-26T10:20:07.090Z,21.51
2019-04-26T10:22:41.311Z,21.59
2019-04-26T10:25:28.347Z,21.77
2019-04-26T10:28:03.156Z,21.71
2019-04-26T10:30:45.363Z,21.56
2019-04-26T10:33:25.652Z,21.34
2019-04-26T10:36:00.242Z,21.22
2019-04-26T10:38:35.490Z,21.17
2019-04-26T10:41:08.462Z,21.00
2019-04-26T10:43:44.626Z,21.37
2019-04-26T10:46:18.632Z,21.10
2019-04-26T10:48:52.859Z,21.02
2019-04-26T10:51:38.615Z,20.15
2019-04-26T10:54:17.655Z,20.03
2019-04-26T10:56:51.059Z,19.39
2019-04-26T10:59:28.058Z,19.02
2019-04-26T11:02:04.855Z,18.68
2019-04-26T11:04:41.347Z,18.34
2019-04-26T11:07:21.236Z,18.24
2019-04-26T11:10:02.878Z,17.96
2019-04-26T11:12:44.826Z,17.85
2019-04-26T11:15:20.570Z,17.88
2019-04-26T11:17:53.180Z,18.24
2019-04-26T11:20:26.435Z,17.87
2019-04-26T11:23:11.790Z,17.39
2019-04-26T11:25:42.956Z,17.20
2019-04-26T11:28:21.224Z,16.90
2019-04-26T11:30:57.320Z,16.95
2019-04-26T11:33:27.160Z,16.98
2019-04-26T11:35:58.790Z,17.33
2019-04-26T11:38:40.895Z,17.90
2019-04-26T11:41:13.197Z,17.76
2019-04-26T11:44:01.299Z,17.69
2019-04-26T11:46:50.813Z,17.93
2019-04-26T11:49:22.447Z,18.58
2019-04-26T11:51:58.582Z,18.59
2019-04-26T11:54:32.804Z,18.63
2019-04-26T11:57:04.159Z,18.59
2019-04-26T11:59:35.907Z,18.46
2019-04-26T12:02:16.174Z,18.50
2019-04-26T12:04:53.613Z,18.02
2019-04-26T12:07:29.301Z,17.70
2019-04-26T12:10:09.882Z,17.44
2019-04-26T12:12:43.135Z,17.42
2019-04-26T12:15:15.515Z,17.50
2019-04-26T12:17:58.094Z,17.44
2019-04-26T12:20:29.464Z,17.43
2019-04-26T12:23:02.932Z,17.72
2019-04-26T12:25:48.100Z,18.10
2019-04-26T12:28:17.767Z,18.38
2019-04-26T12:30:58.441Z,18.45
2019-04-26T12:33:46.999Z,18.31
2019-04-26T12:36:25.413Z,17.76
2019-04-26T12:39:02.223Z,17.75
2019-04-26T12:41:40.746Z,17.61
2019-04-26T12:44:13.054Z,17.03
2019-04-26T12:46:59.389Z,16.68
2019-04-26T12:49:30.935Z,16.39
2019-04-26T12:52:12.496Z,16.39
2019-04-26T12:54:57.663Z,16.07
2019-04-26T12:57:32.194Z,16.35
2019-04-26T13:00:06.610Z,16.41
2019-04-26T13:02:38.267Z,16.73
2019-04-26T13:05:14.525Z,17.03
2019-04-26T13:07:46.593Z,17.03
2019-04-26T13:10:31.285Z,16.91
2019-04-26T13:13:10.478Z,16.91
2019-04-26T13:16:05.328Z,16.76
2019-04-26T13:18:41.095Z,17.23
2019-04-26T13:21:17.432Z,17.68
2019-04-26T13:24:07.481Z,18.06
2019-04-26T13:26:41.185Z,18.04
2019-04-26T13:29:12.508Z,18.06
2019-04-26T13:31:59.476Z,18.02
2019-04-26T13:34:33.244Z,17.71
2019-04-26T13:37:07.587Z,17.67
2019-04-26T13:39:41.439Z,17.59
2019-04-26T13:42:18.698Z,17.19
2019-04-26T13:45:00.462Z,17.75
2019-04-26T13:47:45.860Z,17.75
2019-04-26T13:50:28.355Z,17.72
2019-04-26T13:53:01.934Z,18.12
2019-04-26T13:55:33.871Z,18.96
2019-04-26T13:58:06.345Z,19.45
2019-04-26T14:00:39.739Z,20.44
2019-04-26T14:03:11.627Z,21.41
2019-04-26T14:05:46.661Z,22.23
2019-04-26T14:08:18.830Z,22.69
2019-04-26T14:10:52.123Z,22.96
2019-04-26T14:13:24.892Z,22.67
2019-04-26T14:15:58.706Z,22.89
2019-04-26T14:18:41.152Z,22.39
2019-04-26T14:21:15.251Z,22.02
2019-04-26T14:23:53.030Z,21.77
2019-04-26T14:26:28.214Z,21.47
2019-04-26T14:28:59.858Z,21.24
2019-04-26T14:31:37.725Z,21.24
2019-04-26T14:34:11.962Z,21.23
2019-04-26T14:36:51.271Z,21.39
2019-04-26T14:39:35.118Z,21.82
2019-04-26T14:41:58.943Z,21.89
2019-04-26T14:44:31.232Z,22.29
2019-04-26T14:47:13.806Z,22.27
2019-04-26T14:49:39.235Z,22.55
2019-04-26T14:52:10.396Z,22.69
2019-04-26T14:54:46.055Z,22.76
2019-04-26T14:57:26.653Z,22.39
2019-04-26T14:59:57.672Z,22.51
2019-04-26T15:02:41.595Z,22.50
2019-04-26T15:05:18.694Z,22.41
2019-04-26T15:08:05.395Z,22.45
2019-04-26T15:10:44.382Z,22.71
2019-04-26T15:13:17.961Z,23.17
2019-04-26T15:15:46.819Z,22.92
2019-04-26T15:18:22.381Z,23.52
2019-04-26T15:20:57.115Z,23.76
2019-04-26T15:23:29.920Z,24.04
2019-04-26T15:26:05.011Z,23.94
2019-04-26T15:28:43.700Z,23.89
2019-04-26T15:31:13.140Z,23.94
2019-04-26T15:33:50.077Z,23.73
2019-04-26T15:36:25.022Z,24.03
2019-04-26T15:38:59.968Z,24.30
2019-04-26T15:41:47.080Z,24.35
2019-04-26T15:44:32.762Z,24.26
2019-04-26T15:47:07.190Z,24.35
2019-04-26T15:49:50.007Z,24.17
2019-04-26T15:52:26.373Z,24.31
2019-04-26T15:54:59.097Z,24.54
2019-04-26T15:57:34.962Z,24.67
2019-04-26T16:00:07.524Z,24.28
2019-04-26T16:02:42.581Z,24.44
2019-04-26T16:05:13.048Z,24.44
2019-04-26T16:07:44.284Z,24.78
2019-04-26T16:10:17.609Z,25.27
2019-04-26T16:12:49.076Z,25.62
2019-04-26T16:15:20.581Z,26.05
2019-04-26T16:17:52.279Z,26.69
2019-04-26T16:20:31.649Z,27.30
2019-04-26T16:23:06.299Z,27.81
2019-04-26T16:25:38.409Z,27.97
2019-04-26T16:28:25.686Z,28.64
2019-04-26T16:34:06.649Z,29.86
2019-04-26T16:36:36.490Z,30.27
2019-04-26T16:39:12.963Z,30.63
2019-04-26T16:41:44.856Z,30.98
2019-04-26T16:44:30.137Z,31.89
2019-04-26T16:47:01.276Z,32.14
2019-04-26T16:49:35.096Z,32.40
2019-04-26T16:52:14.710Z,32.82
2019-04-26T16:54:53.044Z,32.92
2019-04-26T16:57:43.900Z,33.04
2019-04-26T17:00:15.059Z,33.34
2019-04-26T17:00:31.750Z,29.17
2019-04-26T17:02:47.356Z,33.42
2019-04-26T17:05:45.501Z,33.19
2019-04-26T17:08:05.131Z,33.24
2019-04-26T17:10:37.974Z,33.29
2019-04-26T17:13:10.821Z,33.47
2019-04-26T17:15:43.004Z,33.43
2019-04-26T17:18:19.407Z,33.63
2019-04-26T17:20:50.178Z,33.57
2019-04-26T17:23:40.176Z,34.15
2019-04-26T17:26:29.005Z,34.50
2019-04-26T17:29:16.769Z,34.79
2019-04-26T17:31:48.832Z,35.09
2019-04-26T17:34:24.062Z,35.30
2019-04-26T17:36:55.340Z,34.96
2019-04-26T17:39:31.782Z,35.21
2019-04-26T17:42:05.175Z,35.31
2019-04-26T17:44:41.648Z,35.23
2019-04-26T17:47:15.346Z,35.18
2019-04-26T17:49:50.167Z,35.26
2019-04-26T17:52:36.052Z,35.17
2019-04-26T17:55:07.857Z,35.34
2019-04-26T17:57:43.531Z,35.59
2019-04-26T18:00:26.758Z,35.65
2019-04-26T18:02:55.236Z,36.06
2019-04-26T18:05:55.841Z,36.13
2019-04-26T18:08:33.870Z,36.24
2019-04-26T18:11:03.420Z,36.59
2019-04-26T18:13:47.248Z,36.60
2019-04-26T18:16:39.407Z,36.81
2019-04-26T18:19:30.216Z,37.05
2019-04-26T18:22:04.986Z,36.97
2019-04-26T18:24:45.494Z,37.39
2019-04-26T18:27:24.689Z,37.47
2019-04-26T18:30:10.335Z,37.49
2019-04-26T18:32:48.047Z,37.60
2019-04-26T18:35:21.088Z,37.60
2019-04-26T18:38:03.694Z,37.64
2019-04-26T18:40:56.540Z,37.45
2019-04-26T18:43:27.488Z,37.58
2019-04-26T18:46:10.148Z,37.68
2019-04-26T18:48:42.545Z,37.78
2019-04-26T18:51:33.403Z,37.75
2019-04-26T18:54:09.330Z,37.96
2019-04-26T18:56:40.978Z,38.12
2019-04-26T18:59:15.441Z,38.13
2019-04-26T19:01:48.301Z,38.39
2019-04-26T19:04:20.068Z,37.89
2019-04-26T19:06:51.194Z,37.63
2019-04-26T19:09:24.454Z,37.60
2019-04-26T19:11:56.212Z,37.70
2019-04-26T19:14:29.072Z,37.87
2019-04-26T19:17:05.004Z,38.04
2019-04-26T19:19:44.324Z,38.36
2019-04-26T19:22:17.085Z,38.67
2019-04-26T19:24:49.404Z,38.97
2019-04-26T19:27:26.683Z,39.53
2019-04-26T19:29:54.788Z,39.95
2019-04-26T19:32:26.583Z,40.10
2019-04-26T19:35:00.727Z,40.25
2019-04-26T19:37:36.655Z,40.45
2019-04-26T19:40:09.047Z,40.68
2019-04-26T19:42:39.861Z,40.67
2019-04-26T19:45:18.968Z,40.66
2019-04-26T19:47:52.068Z,40.76
2019-04-26T19:50:42.026Z,41.18
2019-04-26T19:53:16.593Z,40.96
2019-04-26T19:56:05.237Z,40.84
2019-04-26T19:58:38.223Z,41.04
2019-04-26T20:01:09.776Z,41.57
2019-04-26T20:03:43.112Z,41.68
2019-04-26T20:06:18.765Z,41.65
2019-04-26T20:08:49.662Z,41.39
2019-04-26T20:11:22.025Z,41.35
2019-04-26T20:13:55.288Z,41.13
2019-04-26T20:16:26.572Z,41.01
2019-04-26T20:18:58.219Z,41.09
2019-04-26T20:21:32.072Z,40.91
2019-04-26T20:24:03.173Z,40.66
2019-04-26T20:26:37.471Z,40.52
2019-04-26T20:29:10.209Z,39.91
2019-04-26T20:31:47.763Z,40.47
2019-04-26T20:34:18.850Z,40.34
2019-04-26T20:36:52.028Z,40.13
2019-04-26T20:39:24.069Z,39.96
2019-04-26T20:42:01.983Z,39.96
2019-04-26T20:44:31.619Z,40.30
2019-04-26T20:47:03.308Z,40.62
2019-04-26T20:49:47.214Z,40.68
2019-04-26T20:52:07.768Z,40.53
2019-04-26T20:54:38.895Z,40.28
2019-04-26T20:57:12.314Z,39.97
2019-04-26T20:59:43.535Z,39.75
2019-04-26T21:02:16.345Z,39.67
2019-04-26T21:04:47.880Z,39.56
2019-04-26T21:07:19.424Z,39.38
2019-04-26T21:09:50.732Z,39.22
2019-04-26T21:12:22.427Z,39.18
2019-04-26T21:14:53.757Z,39.18
2019-04-26T21:17:27.725Z,39.23
2019-04-26T21:19:58.690Z,39.23
2019-04-26T21:22:31.663Z,39.28
2019-04-26T21:25:04.867Z,39.44
2019-04-26T21:27:43.070Z,39.37
2019-04-26T21:30:22.442Z,39.19
2019-04-26T21:32:59.289Z,39.26
2019-04-26T21:35:32.410Z,39.36
2019-04-26T21:38:08.208Z,39.30
2019-04-26T21:40:41.039Z,39.02
2019-04-26T21:43:12.593Z,39.02
2019-04-26T21:45:44.247Z,39.55
2019-04-26T21:48:18.238Z,39.61
2019-04-26T21:50:48.992Z,40.07
2019-04-26T21:53:20.420Z,40.07
2019-04-26T21:55:51.991Z,39.65
2019-04-26T21:58:24.657Z,39.70
2019-04-26T22:01:04.408Z,39.88
2019-04-26T22:03:36.581Z,39.72
2019-04-26T22:06:07.724Z,39.72
2019-04-26T22:08:40.507Z,39.96
2019-04-26T22:11:13.991Z,39.99
2019-04-26T22:13:50.641Z,39.95
2019-04-26T22:16:40.346Z,40.09
2019-04-26T22:19:14.640Z,40.09
2019-04-26T22:21:47.658Z,40.04
2019-04-26T22:24:23.622Z,40.33
2019-04-26T22:26:54.657Z,40.45
2019-04-26T22:29:26.513Z,40.50
2019-04-26T22:31:57.967Z,40.69
2019-04-26T22:34:29.569Z,40.87
2019-04-26T22:37:01.816Z,40.86
2019-04-26T22:39:39.772Z,41.07
2019-04-26T22:42:08.782Z,41.23
2019-04-26T22:44:43.607Z,41.24
2019-04-26T22:47:19.028Z,41.15
2019-04-26T22:49:51.121Z,41.29
2019-04-26T22:52:23.089Z,41.34
2019-04-26T22:54:54.839Z,41.53
2019-04-26T22:57:25.998Z,41.52
2019-04-26T22:59:57.537Z,41.71
2019-04-26T23:02:28.897Z,41.75
2019-04-26T23:05:02.029Z,41.84
2019-04-26T23:07:33.632Z,41.84
2019-04-26T23:10:07.381Z,41.79
2019-04-26T23:13:04.520Z,42.01
2019-04-26T23:15:33.302Z,42.14
2019-04-26T23:18:08.204Z,42.40
2019-04-26T23:20:42.658Z,42.35
2019-04-26T23:23:14.372Z,42.54
2019-04-26T23:25:45.620Z,42.51
2019-04-26T23:28:17.273Z,42.52
2019-04-26T23:30:48.762Z,42.50
2019-04-26T23:33:20.588Z,42.35
2019-04-26T23:35:53.019Z,42.32
2019-04-26T23:38:24.211Z,42.04
2019-04-26T23:40:57.192Z,41.92
2019-04-26T23:43:28.843Z,42.03
2019-04-26T23:46:00.306Z,42.09
2019-04-26T23:48:33.178Z,42.16
2019-04-26T23:51:08.230Z,42.27
2019-04-26T23:53:37.405Z,42.26
2019-04-26T23:56:08.751Z,42.31
2019-04-26T23:58:44.167Z,42.39
